Time;durP1;ratioP1;P1;durP2;ratioP2;P2;SDS_P1;SDS_P2;PMS_P1;PMS_P2;Temp;Humidity;BMP_temperature;BMP_pressure;BME280_temperature;BME280_humidity;BME280_pressure;Samples;Min_cycle;Max_cycle;Signal;HPM_P1;HPM_P2
2023/05/21 00:00:35;;;;;;;15.93;14.23;;;12.50;1.00;;;;;;5038024;28;20463;-61
2023/05/21 00:03:02;;;;;;;17.90;15.77;;;12.50;1.00;;;;;;5037196;28;20514;-61
2023/05/21 00:05:29;;;;;;;18.73;14.47;;;12.50;1.00;;;;;;5037114;28;20739;-61
2023/05/21 00:07:57;;;;;;;16.90;15.00;;;12.50;1.00;;;;;;5036794;28;20878;-62
2023/05/21 00:10:24;;;;;;;18.43;15.47;;;12.50;1.00;;;;;;5037597;28;20463;-61
2023/05/21 00:12:51;;;;;;;20.73;15.97;;;12.50;1.00;;;;;;5037494;28;20464;-61
2023/05/21 00:15:18;;;;;;;15.93;14.07;;;12.40;1.00;;;;;;5037821;28;20462;-61
2023/05/21 00:17:47;;;;;;;19.43;15.87;;;12.40;1.00;;;;;;5036871;28;20467;-61
2023/05/21 00:20:15;;;;;;;16.33;14.40;;;12.40;1.00;;;;;;5037180;28;20474;-61
2023/05/21 00:22:42;;;;;;;15.93;13.67;;;12.40;1.00;;;;;;5037208;28;20467;-62
2023/05/21 00:25:10;;;;;;;16.40;14.57;;;12.40;1.00;;;;;;5037482;28;20566;-61
2023/05/21 00:27:38;;;;;;;16.00;14.33;;;12.40;1.00;;;;;;5036632;28;20459;-62
2023/05/21 00:30:06;;;;;;;18.73;15.27;;;12.30;1.00;;;;;;5037470;28;20919;-61
2023/05/21 00:32:35;;;;;;;21.77;15.97;;;12.30;1.00;;;;;;5037544;28;20528;-62
2023/05/21 00:35:05;;;;;;;15.30;13.80;;;12.30;1.00;;;;;;5037298;28;20463;-62
2023/05/21 00:37:38;;;;;;;17.83;14.67;;;12.20;7.00;;;;;;5036753;28;20448;-61
2023/05/21 00:40:07;;;;;;;16.70;14.73;;;12.20;2.80;;;;;;5037012;28;20505;-61
2023/05/21 00:42:38;;;;;;;17.57;14.73;;;12.20;89.70;;;;;;5037410;28;20463;-61
2023/05/21 00:45:06;;;;;;;17.53;15.47;;;12.20;99.20;;;;;;5030824;28;20464;-62
2023/05/21 00:47:37;;;;;;;16.20;14.50;;;12.20;55.40;;;;;;5036161;28;20509;-61
2023/05/21 00:50:08;;;;;;;15.40;13.80;;;12.20;96.30;;;;;;5036980;28;20486;-61
2023/05/21 00:52:40;;;;;;;15.87;14.10;;;12.20;70.80;;;;;;5037327;28;20562;-61
2023/05/21 00:55:09;;;;;;;15.50;13.90;;;12.20;72.80;;;;;;5031034;28;20488;-62
2023/05/21 00:57:37;;;;;;;16.70;15.20;;;12.20;99.90;;;;;;5036947;28;20476;-61
2023/05/21 01:00:07;;;;;;;15.50;13.40;;;12.20;99.90;;;;;;5036955;28;20458;-62
2023/05/21 01:02:36;;;;;;;16.57;14.73;;;12.10;99.90;;;;;;5037211;28;20829;-61
2023/05/21 01:05:09;;;;;;;15.60;14.00;;;12.20;99.90;;;;;;5036161;28;20471;-61
2023/05/21 01:07:42;;;;;;;17.20;15.40;;;12.20;99.90;;;;;;5036739;28;20463;-60
2023/05/21 01:10:12;;;;;;;14.93;13.27;;;12.10;91.90;;;;;;5035095;28;20498;-60
2023/05/21 01:12:41;;;;;;;16.73;15.03;;;12.10;99.90;;;;;;5035373;28;20502;-61
2023/05/21 01:15:10;;;;;;;17.87;15.23;;;12.10;99.90;;;;;;5035587;28;20463;-62
2023/05/21 01:17:39;;;;;;;15.50;13.90;;;12.10;99.90;;;;;;5034970;28;20469;-61
2023/05/21 01:20:10;;;;;;;16.83;13.33;;;12.00;99.90;;;;;;5035134;28;20748;-61
2023/05/21 01:22:42;;;;;;;14.83;13.33;;;12.00;99.90;;;;;;5034915;28;20463;-62
2023/05/21 01:25:11;;;;;;;17.17;15.33;;;12.10;99.90;;;;;;5036668;28;20530;-62
2023/05/21 01:27:38;;;;;;;17.40;14.40;;;12.10;99.90;;;;;;5036040;28;20463;-61
2023/05/21 01:30:07;;;;;;;17.00;14.30;;;12.10;99.90;;;;;;5036735;28;20569;-61
2023/05/21 01:32:40;;;;;;;15.50;13.87;;;12.10;99.90;;;;;;5036657;28;20534;-61
2023/05/21 01:35:12;;;;;;;16.40;14.63;;;12.10;99.90;;;;;;5037904;28;20473;-61
2023/05/21 01:37:46;;;;;;;15.63;13.60;;;12.10;99.90;;;;;;5040659;28;20522;-61
2023/05/21 01:40:19;;;;;;;16.17;14.47;;;12.00;99.90;;;;;;5040293;28;20526;-61
2023/05/21 01:42:47;;;;;;;16.30;14.10;;;12.00;99.90;;;;;;5040378;28;20467;-61
2023/05/21 01:45:16;;;;;;;19.67;16.70;;;12.00;99.90;;;;;;5039740;28;20524;-61
2023/05/21 01:47:47;;;;;;;15.77;14.17;;;11.90;1.00;;;;;;5040052;28;20482;-61
2023/05/21 01:50:14;;;;;;;16.93;14.60;;;11.90;1.00;;;;;;5039848;28;20495;-61
2023/05/21 01:52:49;;;;;;;24.93;16.30;;;11.90;99.90;;;;;;5040146;28;20950;-61
2023/05/21 01:55:23;;;;;;;16.90;15.13;;;11.90;4.80;;;;;;5039784;28;20471;-61
2023/05/21 01:57:51;;;;;;;16.57;14.60;;;11.90;1.00;;;;;;5039532;28;20471;-61
2023/05/21 02:00:19;;;;;;;14.97;13.40;;;11.90;1.00;;;;;;5042169;28;20455;-61
2023/05/21 02:02:47;;;;;;;15.50;13.90;;;11.90;1.00;;;;;;5059796;28;20501;-61
2023/05/21 02:05:14;;;;;;;15.60;13.93;;;11.90;1.00;;;;;;5060170;28;20458;-61
2023/05/21 02:07:42;;;;;;;16.63;14.10;;;11.90;1.00;;;;;;5059781;28;20435;-61
2023/05/21 02:10:10;;;;;;;17.50;15.60;;;11.80;1.00;;;;;;5059088;28;20493;-61
2023/05/21 02:12:39;;;;;;;15.87;14.20;;;11.80;1.00;;;;;;5059790;28;20473;-61
2023/05/21 02:15:07;;;;;;;14.50;13.10;;;11.90;25.10;;;;;;5059986;28;20498;-61
2023/05/21 02:17:34;;;;;;;14.67;13.07;;;11.80;1.00;;;;;;5059263;28;20557;-61
2023/05/21 02:20:10;;;;;;;15.97;14.30;;;11.80;99.10;;;;;;5059006;28;20458;-61
2023/05/21 02:22:38;;;;;;;15.20;13.70;;;11.80;99.90;;;;;;5059570;28;20462;-61
2023/05/21 02:25:07;;;;;;;16.40;14.70;;;11.80;99.90;;;;;;5059298;28;20465;-61
2023/05/21 02:27:35;;;;;;;15.43;13.83;;;11.70;99.90;;;;;;5058841;28;20466;-61
2023/05/21 02:30:05;;;;;;;15.60;13.53;;;11.70;99.90;;;;;;5059392;28;20524;-61
2023/05/21 02:32:33;;;;;;;14.87;13.27;;;11.70;99.90;;;;;;5059354;28;20564;-61
2023/05/21 02:35:02;;;;;;;15.90;14.30;;;11.70;99.90;;;;;;5059699;28;20466;-61
2023/05/21 02:37:32;;;;;;;17.50;13.47;;;11.70;1.00;;;;;;5058624;28;20466;-61
2023/05/21 02:40:00;;;;;;;14.77;12.90;;;11.70;1.00;;;;;;5058886;28;20938;-61
2023/05/21 02:42:27;;;;;;;14.90;13.33;;;11.80;1.00;;;;;;5058761;28;20556;-61
2023/05/21 02:44:55;;;;;;;16.60;14.90;;;11.70;99.90;;;;;;5058954;28;20466;-61
2023/05/21 02:47:24;;;;;;;14.43;12.93;;;11.80;99.90;;;;;;5058910;28;20462;-61
2023/05/21 02:49:52;;;;;;;15.57;13.97;;;11.70;99.90;;;;;;5058421;28;20501;-61
2023/05/21 02:52:20;;;;;;;15.00;13.20;;;11.70;1.00;;;;;;5058589;28;20843;-61
2023/05/21 02:54:48;;;;;;;14.73;13.20;;;11.70;99.90;;;;;;5058674;28;20466;-61
2023/05/21 02:57:17;;;;;;;17.47;12.73;;;11.70;99.90;;;;;;5058119;28;20553;-61
2023/05/21 02:59:44;;;;;;;16.77;14.13;;;11.70;99.90;;;;;;5058024;28;20463;-61
2023/05/21 03:02:11;;;;;;;14.60;12.97;;;11.70;1.00;;;;;;5058618;28;20461;-61
2023/05/21 03:04:44;;;;;;;19.50;15.00;;;11.70;1.00;;;;;;5050429;28;20561;-60
2023/05/21 03:07:12;;;;;;;14.30;12.80;;;11.70;1.00;;;;;;5038178;28;20441;-61
2023/05/21 03:09:40;;;;;;;14.30;12.43;;;11.70;1.00;;;;;;5038194;28;20974;-62
2023/05/21 03:12:08;;;;;;;14.33;12.83;;;11.70;1.00;;;;;;5038136;28;20470;-61
2023/05/21 03:14:35;;;;;;;15.30;13.80;;;11.70;1.00;;;;;;5038625;28;20956;-61
2023/05/21 03:17:04;;;;;;;15.53;13.20;;;11.70;1.00;;;;;;5038338;28;20534;-61
2023/05/21 03:19:33;;;;;;;15.33;12.70;;;11.70;1.00;;;;;;5037971;28;20467;-61
2023/05/21 03:22:02;;;;;;;15.17;13.60;;;11.70;1.00;;;;;;5037792;28;20462;-61
2023/05/21 03:24:30;;;;;;;16.60;14.87;;;11.70;1.00;;;;;;5038162;28;20485;-61
2023/05/21 03:26:58;;;;;;;15.73;14.10;;;11.70;13.90;;;;;;5038562;28;20459;-62
2023/05/21 03:29:25;;;;;;;14.53;13.20;;;11.60;99.90;;;;;;5037712;28;20499;-61
2023/05/21 03:31:52;;;;;;;14.53;13.03;;;11.70;1.00;;;;;;5038165;28;20767;-61
2023/05/21 03:34:20;;;;;;;14.60;13.10;;;11.70;1.00;;;;;;5038189;28;20471;-61
2023/05/21 03:36:47;;;;;;;14.43;12.93;;;11.60;1.00;;;;;;5037951;28;20888;-61
2023/05/21 03:39:16;;;;;;;21.07;14.03;;;11.70;1.00;;;;;;5037986;28;20460;-61
2023/05/21 03:41:43;;;;;;;16.33;12.73;;;11.60;1.00;;;;;;5037306;28;20559;-61
2023/05/21 03:44:11;;;;;;;13.40;12.10;;;11.70;1.00;;;;;;5037538;28;20462;-62
2023/05/21 03:46:38;;;;;;;14.77;13.20;;;11.70;1.00;;;;;;5037777;28;20521;-61
2023/05/21 03:49:05;;;;;;;14.70;13.07;;;11.70;1.00;;;;;;5037625;28;20491;-61
2023/05/21 03:51:32;;;;;;;14.40;12.13;;;11.70;1.00;;;;;;5037504;28;20437;-61
2023/05/21 03:54:00;;;;;;;15.10;13.50;;;11.70;1.00;;;;;;5037661;28;20876;-61
2023/05/21 03:56:28;;;;;;;14.40;12.90;;;11.70;1.00;;;;;;5034932;28;20473;-61
2023/05/21 03:58:56;;;;;;;15.30;13.70;;;11.70;1.00;;;;;;5035431;28;20475;-61
2023/05/21 04:01:23;;;;;;;13.97;12.10;;;11.70;1.00;;;;;;5036846;28;20545;-61
2023/05/21 04:03:50;;;;;;;14.53;12.43;;;11.70;1.00;;;;;;5037503;28;20565;-61
2023/05/21 04:06:17;;;;;;;13.90;12.50;;;11.70;4.40;;;;;;5037275;28;20765;-61
2023/05/21 04:08:44;;;;;;;14.13;12.30;;;11.70;24.30;;;;;;5037249;28;20927;-61
2023/05/21 04:11:12;;;;;;;16.23;13.10;;;11.70;99.90;;;;;;5037713;28;20469;-61
2023/05/21 04:13:40;;;;;;;14.53;11.73;;;11.70;99.90;;;;;;5035060;28;20483;-60
2023/05/21 04:16:08;;;;;;;15.10;13.60;;;11.70;99.90;;;;;;5036294;28;20566;-62
2023/05/21 04:18:35;;;;;;;13.87;12.53;;;11.70;99.90;;;;;;5036899;28;20467;-61
2023/05/21 04:21:03;;;;;;;16.33;13.03;;;11.80;99.90;;;;;;5037459;28;20440;-62
2023/05/21 04:23:30;;;;;;;16.80;12.80;;;11.80;1.00;;;;;;5037086;28;20485;-61
2023/05/21 04:25:57;;;;;;;14.70;13.30;;;11.80;99.90;;;;;;5037151;28;20464;-61
2023/05/21 04:28:27;;;;;;;13.80;12.50;;;11.80;99.90;;;;;;5036955;28;20498;-61
2023/05/21 04:30:56;;;;;;;13.13;11.77;;;11.80;99.90;;;;;;5037131;28;20594;-61
2023/05/21 04:33:23;;;;;;;15.10;13.70;;;11.90;99.90;;;;;;5037243;28;20774;-61
2023/05/21 04:35:52;;;;;;;14.47;12.60;;;11.90;99.90;;;;;;5037333;28;20947;-61
2023/05/21 04:38:19;;;;;;;16.40;12.60;;;11.90;99.90;;;;;;5037483;28;20601;-61
2023/05/21 04:40:49;;;;;;;16.23;12.77;;;11.90;28.90;;;;;;5037057;28;20463;-61
2023/05/21 04:43:16;;;;;;;13.93;12.53;;;12.00;1.00;;;;;;5037435;28;20566;-61
2023/05/21 04:45:44;;;;;;;14.37;12.47;;;12.00;1.00;;;;;;5037125;28;20899;-61
2023/05/21 04:48:14;;;;;;;14.13;12.60;;;12.00;1.00;;;;;;5036782;28;20557;-61
2023/05/21 04:50:42;;;;;;;13.40;12.10;;;12.00;1.00;;;;;;5037051;28;20499;-61
2023/05/21 04:53:09;;;;;;;13.10;11.90;;;12.10;1.00;;;;;;5037288;28;20467;-61
2023/05/21 04:55:38;;;;;;;13.13;11.57;;;12.10;1.00;;;;;;5037173;28;20715;-61
2023/05/21 04:58:05;;;;;;;16.93;13.23;;;12.10;1.00;;;;;;5036739;28;20474;-61
2023/05/21 05:00:33;;;;;;;12.27;10.97;;;12.10;99.90;;;;;;5037088;28;20459;-61
2023/05/21 05:03:00;;;;;;;13.70;12.30;;;12.20;99.90;;;;;;5037295;28;20743;-61
2023/05/21 05:05:29;;;;;;;14.53;11.13;;;12.20;18.50;;;;;;5036623;28;20473;-61
2023/05/21 05:07:57;;;;;;;12.93;11.63;;;12.30;1.00;;;;;;5036875;28;20495;-61
2023/05/21 05:10:24;;;;;;;12.90;11.63;;;12.30;1.00;;;;;;5039977;28;20502;-61
2023/05/21 05:12:51;;;;;;;13.03;11.73;;;12.30;99.90;;;;;;5041025;28;20758;-61
2023/05/21 05:15:18;;;;;;;13.23;11.83;;;12.30;1.00;;;;;;5040525;28;20466;-61
2023/05/21 05:17:49;;;;;;;11.80;10.60;;;12.40;1.00;;;;;;5040430;28;20490;-62
2023/05/21 05:20:16;;;;;;;13.77;11.43;;;12.30;1.00;;;;;;5040758;28;20739;-61
2023/05/21 05:22:45;;;;;;;12.60;11.30;;;12.40;1.00;;;;;;5040966;28;20463;-62
2023/05/21 05:25:12;;;;;;;13.30;11.90;;;12.40;99.90;;;;;;5040942;28;20474;-61
2023/05/21 05:27:39;;;;;;;13.10;11.80;;;12.50;99.90;;;;;;5040155;28;20433;-62
2023/05/21 05:30:08;;;;;;;11.93;10.80;;;12.50;99.90;;;;;;5040196;28;20981;-61
2023/05/21 05:32:35;;;;;;;12.87;11.50;;;12.60;99.90;;;;;;5040733;28;20834;-61
2023/05/21 05:35:02;;;;;;;12.97;11.70;;;12.50;94.50;;;;;;5040357;28;20509;-61
2023/05/21 05:37:30;;;;;;;14.50;13.10;;;12.60;45.20;;;;;;5039911;28;20463;-62
2023/05/21 05:39:58;;;;;;;14.40;13.00;;;12.60;1.00;;;;;;5040022;28;20545;-61
2023/05/21 05:42:25;;;;;;;13.17;11.63;;;12.60;1.00;;;;;;5040180;28;20463;-61
2023/05/21 05:44:53;;;;;;;14.10;12.63;;;12.70;1.00;;;;;;5040258;28;20437;-61
2023/05/21 05:47:20;;;;;;;13.37;11.97;;;12.80;1.00;;;;;;5040148;28;20994;-61
2023/05/21 05:49:47;;;;;;;13.23;12.03;;;12.90;1.00;;;;;;5039573;28;20486;-61
2023/05/21 05:52:14;;;;;;;17.03;12.80;;;12.90;1.00;;;;;;5039683;28;20448;-62
2023/05/21 05:54:42;;;;;;;12.53;11.23;;;12.90;1.00;;;;;;5040307;28;20469;-61
2023/05/21 05:57:10;;;;;;;14.30;12.90;;;13.00;1.00;;;;;;5039895;28;20501;-61
2023/05/21 05:59:37;;;;;;;16.00;12.13;;;13.10;99.90;;;;;;5039800;28;20469;-61
2023/05/21 06:02:05;;;;;;;12.37;11.07;;;13.20;99.90;;;;;;5044510;28;20469;-61
2023/05/21 06:04:32;;;;;;;13.67;12.27;;;13.20;99.90;;;;;;5059611;28;20484;-61
2023/05/21 06:06:59;;;;;;;13.83;12.53;;;13.30;99.90;;;;;;5053523;28;20459;-62
2023/05/21 06:09:26;;;;;;;13.70;12.10;;;13.30;99.90;;;;;;5038112;28;20463;-61
2023/05/21 06:11:54;;;;;;;14.50;12.07;;;13.40;99.90;;;;;;5037694;28;20561;-62
2023/05/21 06:14:23;;;;;;;17.33;13.53;;;13.40;99.90;;;;;;5037709;28;20521;-62
2023/05/21 06:16:50;;;;;;;13.87;12.57;;;13.30;99.90;;;;;;5037652;28;20779;-62
2023/05/21 06:19:17;;;;;;;14.33;12.93;;;13.30;99.90;;;;;;5038113;28;20561;-62
2023/05/21 06:21:44;;;;;;;13.27;11.97;;;13.40;99.90;;;;;;5036290;28;20776;-61
2023/05/21 06:24:12;;;;;;;14.00;12.60;;;13.40;99.90;;;;;;5037321;28;20460;-61
2023/05/21 06:26:39;;;;;;;14.53;13.10;;;13.60;99.90;;;;;;5039176;28;20533;-61
2023/05/21 06:29:06;;;;;;;15.20;13.60;;;13.60;39.40;;;;;;5037587;28;20530;-61
2023/05/21 06:31:35;;;;;;;14.17;12.83;;;13.80;41.40;;;;;;5037792;28;20490;-61
2023/05/21 06:34:02;;;;;;;14.80;13.10;;;13.90;1.00;;;;;;5037430;28;20463;-62
2023/05/21 06:36:31;;;;;;;15.13;13.60;;;13.90;1.00;;;;;;5037657;28;20760;-61
2023/05/21 06:38:58;;;;;;;13.80;12.40;;;13.80;1.00;;;;;;5037792;28;20471;-62
2023/05/21 06:41:25;;;;;;;15.80;14.20;;;13.70;1.00;;;;;;5037106;28;20465;-61
2023/05/21 06:43:52;;;;;;;14.10;12.70;;;14.00;1.00;;;;;;5037935;28;20963;-60
2023/05/21 06:46:19;;;;;;;16.53;14.40;;;14.00;1.00;;;;;;5038594;28;20561;-60
2023/05/21 06:48:48;;;;;;;15.03;13.53;;;14.20;1.00;;;;;;5038913;28;20892;-61
2023/05/21 06:51:15;;;;;;;15.80;14.27;;;14.40;1.00;;;;;;5038855;28;20953;-61
2023/05/21 06:53:42;;;;;;;14.60;13.17;;;14.50;1.00;;;;;;5038309;28;20536;-60
2023/05/21 06:56:10;;;;;;;16.13;14.30;;;14.50;1.00;;;;;;5039025;28;20462;-60
2023/05/21 06:58:37;;;;;;;15.03;13.63;;;14.60;1.00;;;;;;5038861;28;20852;-61
2023/05/21 07:01:04;;;;;;;14.70;13.20;;;14.50;1.00;;;;;;5038984;28;20573;-61
2023/05/21 07:03:31;;;;;;;15.27;12.90;;;14.70;1.00;;;;;;5038137;28;20467;-61
2023/05/21 07:06:00;;;;;;;13.60;12.30;;;14.90;1.00;;;;;;5038734;28;20539;-61
2023/05/21 07:08:27;;;;;;;15.37;13.87;;;15.00;1.00;;;;;;5030530;28;20469;-62
2023/05/21 07:10:55;;;;;;;14.30;13.00;;;14.90;1.00;;;;;;5039063;28;20997;-62
2023/05/21 07:13:22;;;;;;;14.70;13.30;;;15.00;1.00;;;;;;5038527;28;20437;-61
2023/05/21 07:15:49;;;;;;;15.10;13.80;;;15.20;1.00;;;;;;5038643;28;20469;-61
2023/05/21 07:18:16;;;;;;;14.23;12.97;;;15.20;1.00;;;;;;5038090;28;20467;-61
2023/05/21 07:20:44;;;;;;;15.43;14.00;;;15.30;1.00;;;;;;5045101;28;20537;-61
2023/05/21 07:23:12;;;;;;;14.10;12.70;;;15.50;1.00;;;;;;5058366;28;20465;-61
2023/05/21 07:25:39;;;;;;;14.50;13.20;;;15.60;1.00;;;;;;5057829;28;20894;-61
2023/05/21 07:28:06;;;;;;;15.80;14.40;;;15.70;99.90;;;;;;5052792;28;20912;-61
2023/05/21 07:30:34;;;;;;;14.23;12.83;;;16.00;99.90;;;;;;5038255;28;20593;-62
2023/05/21 07:33:01;;;;;;;14.37;13.03;;;15.80;99.90;;;;;;5035507;28;20470;-62
2023/05/21 07:35:28;;;;;;;14.90;13.53;;;15.80;99.90;;;;;;5037294;28;20501;-61
2023/05/21 07:37:56;;;;;;;15.27;13.97;;;16.00;99.90;;;;;;5038121;28;20473;-62
2023/05/21 07:40:24;;;;;;;13.43;12.23;;;16.00;99.90;;;;;;5037946;28;20549;-61
2023/05/21 07:42:52;;;;;;;15.50;13.03;;;16.30;99.90;;;;;;5038134;28;20461;-61
2023/05/21 07:45:19;;;;;;;13.10;11.90;;;16.20;99.90;;;;;;5038035;28;20470;-61
2023/05/21 07:47:46;;;;;;;15.07;13.67;;;16.50;99.90;;;;;;5037753;28;20975;-62
2023/05/21 07:50:14;;;;;;;15.50;14.13;;;16.70;99.90;;;;;;5037503;28;20568;-63
2023/05/21 07:52:41;;;;;;;16.03;14.63;;;16.50;99.90;;;;;;5036522;28;20470;-62
2023/05/21 07:55:10;;;;;;;14.20;12.90;;;16.50;99.90;;;;;;5004231;28;20467;-61
2023/05/21 07:57:38;;;;;;;14.60;13.40;;;16.60;99.90;;;;;;4997077;28;20470;-61
2023/05/21 08:00:08;;;;;;;15.40;14.10;;;17.00;99.90;;;;;;4997196;28;20469;-62
2023/05/21 08:02:35;;;;;;;15.57;13.93;;;17.20;99.90;;;;;;4996254;28;20476;-61
2023/05/21 08:05:02;;;;;;;14.87;13.43;;;17.40;99.90;;;;;;5006765;28;20469;-61
2023/05/21 08:07:30;;;;;;;15.27;13.87;;;17.60;99.90;;;;;;5020736;28;20780;-61
2023/05/21 08:09:57;;;;;;;15.17;13.67;;;17.60;99.90;;;;;;5017218;28;20559;-61
2023/05/21 08:12:25;;;;;;;16.13;14.73;;;17.80;99.90;;;;;;5016865;28;20801;-61
2023/05/21 08:14:53;;;;;;;15.63;14.23;;;18.10;99.90;;;;;;5016608;28;20566;-61
2023/05/21 08:17:21;;;;;;;15.03;13.80;;;18.30;99.90;;;;;;5016232;28;20463;-62
2023/05/21 08:19:48;;;;;;;15.03;13.73;;;18.20;99.90;;;;;;5016469;28;20471;-62
2023/05/21 08:22:15;;;;;;;15.97;14.57;;;18.10;99.90;;;;;;5016530;28;20905;-62
2023/05/21 08:24:42;;;;;;;15.93;14.53;;;17.70;99.90;;;;;;5016689;28;20550;-62
2023/05/21 08:27:10;;;;;;;15.40;14.00;;;17.60;99.90;;;;;;5017559;28;20498;-62
2023/05/21 08:29:37;;;;;;;16.13;14.57;;;17.10;99.90;;;;;;5032063;28;20487;-62
2023/05/21 08:32:08;;;;;;;15.47;14.10;;;16.90;99.90;;;;;;5035177;28;20526;-62
2023/05/21 08:34:35;;;;;;;16.60;15.00;;;17.00;99.90;;;;;;5035387;28;20463;-62
2023/05/21 08:37:03;;;;;;;16.23;14.63;;;17.20;99.90;;;;;;5035488;28;20545;-62
2023/05/21 08:39:30;;;;;;;16.20;14.70;;;17.40;99.90;;;;;;5035191;28;20569;-62
2023/05/21 08:42:04;;;;;;;15.83;14.37;;;17.50;99.90;;;;;;5034802;28;20509;-62
2023/05/21 08:44:36;;;;;;;16.43;15.03;;;17.50;99.90;;;;;;5038283;28;20871;-60
2023/05/21 08:47:10;;;;;;;15.97;14.47;;;17.60;99.90;;;;;;5039412;28;20471;-59
2023/05/21 08:49:37;;;;;;;17.23;15.23;;;17.70;99.90;;;;;;5038928;28;20488;-59
2023/05/21 08:52:06;;;;;;;17.60;15.87;;;17.70;99.90;;;;;;5039295;28;20604;-59
2023/05/21 08:54:33;;;;;;;16.63;15.13;;;18.00;99.90;;;;;;5038574;28;20989;-60
2023/05/21 08:57:02;;;;;;;15.10;13.70;;;18.60;99.90;;;;;;5037890;28;20459;-60
2023/05/21 08:59:29;;;;;;;15.90;14.50;;;18.60;99.90;;;;;;5037845;28;20891;-60
2023/05/21 09:01:58;;;;;;;16.00;14.50;;;18.70;99.90;;;;;;5038183;28;20498;-60
2023/05/21 09:04:27;;;;;;;16.30;14.90;;;19.10;99.90;;;;;;5039092;28;20524;-60
2023/05/21 09:06:56;;;;;;;17.07;15.57;;;19.40;99.90;;;;;;5039135;28;20467;-59
2023/05/21 09:09:28;;;;;;;18.03;16.43;;;19.40;99.90;;;;;;5038346;28;20463;-58
2023/05/21 09:11:55;;;;;;;17.33;15.80;;;19.40;99.90;;;;;;5037554;28;20593;-59
2023/05/21 09:14:24;;;;;;;16.17;14.57;;;19.50;99.90;;;;;;5038309;28;20494;-59
2023/05/21 09:16:51;;;;;;;17.73;16.20;;;19.50;99.90;;;;;;5037834;28;20567;-59
2023/05/21 09:19:20;;;;;;;17.20;15.60;;;19.50;99.90;;;;;;5036742;28;20501;-58
2023/05/21 09:21:51;;;;;;;15.97;14.57;;;19.80;99.90;;;;;;5037916;28;20527;-59
2023/05/21 09:24:22;;;;;;;16.53;14.90;;;20.00;99.90;;;;;;5037564;28;20559;-59
2023/05/21 09:26:50;;;;;;;15.63;14.17;;;19.80;99.90;;;;;;5038959;28;20459;-59
2023/05/21 09:29:17;;;;;;;16.43;14.90;;;20.00;99.90;;;;;;5038529;28;20487;-59
2023/05/21 09:31:44;;;;;;;17.10;15.67;;;20.20;99.90;;;;;;5038781;28;20495;-58
2023/05/21 09:34:12;;;;;;;16.77;15.17;;;20.30;99.90;;;;;;5040415;28;20935;-59
2023/05/21 09:36:40;;;;;;;15.87;14.47;;;20.00;99.90;;;;;;5040089;28;20486;-59
2023/05/21 09:39:10;;;;;;;18.13;16.53;;;20.00;99.90;;;;;;5040053;28;20505;-60
2023/05/21 09:41:38;;;;;;;16.40;15.00;;;19.90;99.90;;;;;;5040008;28;20735;-60
2023/05/21 09:44:05;;;;;;;18.47;16.87;;;19.80;99.90;;;;;;5039632;28;20463;-60
2023/05/21 09:46:39;;;;;;;17.10;15.53;;;19.70;99.90;;;;;;5039937;28;20885;-60
2023/05/21 09:49:06;;;;;;;17.40;15.73;;;19.60;99.90;;;;;;5040220;28;20873;-61
2023/05/21 09:51:34;;;;;;;16.97;15.47;;;19.40;99.90;;;;;;5039627;28;20590;-61
2023/05/21 09:54:01;;;;;;;17.70;16.07;;;19.50;99.90;;;;;;5039890;28;20463;-60
2023/05/21 09:56:30;;;;;;;17.00;15.50;;;19.70;99.90;;;;;;5038031;28;20562;-60
2023/05/21 09:59:00;;;;;;;16.50;15.07;;;19.90;99.90;;;;;;5039062;28;20466;-60
2023/05/21 10:01:28;;;;;;;16.57;15.00;;;19.90;99.90;;;;;;5037982;28;20459;-60
2023/05/21 10:03:57;;;;;;;16.63;15.20;;;19.90;99.90;;;;;;5039035;28;20903;-61
2023/05/21 10:06:27;;;;;;;17.67;16.07;;;20.10;99.90;;;;;;5039009;28;20792;-61
2023/05/21 10:08:56;;;;;;;15.83;14.43;;;20.10;99.90;;;;;;5039032;28;20489;-61
2023/05/21 10:11:25;;;;;;;16.83;15.33;;;20.10;99.90;;;;;;5039214;28;20553;-61
2023/05/21 10:13:58;;;;;;;18.70;17.00;;;20.40;99.90;;;;;;5038916;28;20441;-60
2023/05/21 10:16:25;;;;;;;17.07;15.37;;;20.50;99.90;;;;;;5039425;28;20437;-60
2023/05/21 10:18:54;;;;;;;16.50;14.80;;;20.70;99.90;;;;;;5037870;28;20469;-62
2023/05/21 10:21:22;;;;;;;15.40;14.07;;;20.70;99.90;;;;;;5043008;28;20549;-61
2023/05/21 10:23:51;;;;;;;16.60;14.90;;;20.90;99.90;;;;;;5047814;28;20461;-60
2023/05/21 10:26:22;;;;;;;17.67;16.07;;;21.20;99.90;;;;;;5042598;28;20879;-60
2023/05/21 10:28:51;;;;;;;16.87;15.37;;;21.40;99.90;;;;;;5047580;28;20487;-62
2023/05/21 10:31:20;;;;;;;17.90;16.30;;;21.30;99.90;;;;;;5045561;28;20491;-62
2023/05/21 10:33:48;;;;;;;18.60;17.07;;;20.80;99.90;;;;;;5038315;28;20955;-61
2023/05/21 10:36:17;;;;;;;18.07;16.50;;;20.80;99.90;;;;;;5039052;28;20466;-60
2023/05/21 10:38:44;;;;;;;18.23;16.63;;;21.40;99.90;;;;;;5038988;28;20899;-61
2023/05/21 10:41:13;;;;;;;18.20;16.60;;;21.40;99.90;;;;;;5039076;28;20455;-61
2023/05/21 10:43:52;;;;;;;17.43;15.83;;;21.50;99.90;;;;;;5038930;28;20459;-61
2023/05/21 10:46:58;;;;;;;17.87;16.23;;;22.20;99.90;;;;;;5038694;28;20884;-61
2023/05/21 10:49:38;;;;;;;16.87;15.37;;;22.90;99.90;;;;;;5038272;28;20554;-60
2023/05/21 10:52:17;;;;;;;16.83;15.33;;;23.20;99.90;;;;;;5037928;28;20495;-61
2023/05/21 10:55:19;;;;;;;16.67;15.30;;;23.60;99.90;;;;;;5038726;28;20485;-61
2023/05/21 10:58:16;;;;;;;18.27;16.53;;;23.70;99.90;;;;;;5038603;28;20744;-61
2023/05/21 11:00:43;;;;;;;17.07;15.47;;;23.90;99.90;;;;;;5038716;28;20765;-61
2023/05/21 11:03:14;;;;;;;17.07;15.57;;;23.60;99.90;;;;;;5038807;28;20491;-61
2023/05/21 11:05:50;;;;;;;17.37;16.00;;;23.50;99.90;;;;;;5038276;28;20463;-60
2023/05/21 11:08:25;;;;;;;17.30;15.80;;;23.50;99.90;;;;;;5037751;28;20468;-60
2023/05/21 11:10:54;;;;;;;18.17;16.40;;;23.90;99.90;;;;;;5038662;28;20464;-60
2023/05/21 11:13:22;;;;;;;18.00;16.50;;;24.00;99.90;;;;;;5038599;28;20932;-60
2023/05/21 11:16:13;;;;;;;19.80;18.17;;;24.10;99.90;;;;;;5038221;28;20463;-60
2023/05/21 11:19:03;;;;;;;17.90;16.30;;;23.80;99.90;;;;;;5038584;28;20467;-60
2023/05/21 11:21:33;;;;;;;18.23;16.70;;;23.30;99.90;;;;;;5037990;28;20459;-61
2023/05/21 11:24:07;;;;;;;18.00;16.40;;;22.80;99.90;;;;;;5038175;28;20467;-60
2023/05/21 11:27:01;;;;;;;17.87;16.37;;;22.90;99.90;;;;;;5038057;28;20485;-60
2023/05/21 11:29:39;;;;;;;17.57;16.07;;;23.30;99.90;;;;;;5037385;28;20491;-61
2023/05/21 11:32:07;;;;;;;18.53;16.43;;;23.50;99.90;;;;;;5038007;28;20930;-61
2023/05/21 11:34:41;;;;;;;20.30;16.53;;;23.60;99.90;;;;;;5036702;28;20471;-61
2023/05/21 11:37:29;;;;;;;17.60;16.10;;;23.90;99.90;;;;;;5037639;28;20914;-60
2023/05/21 11:39:57;;;;;;;19.40;17.80;;;24.00;99.90;;;;;;5037967;28;20465;-60
2023/05/21 11:42:31;;;;;;;18.70;17.20;;;23.30;99.90;;;;;;5037813;28;20502;-59
2023/05/21 11:45:00;;;;;;;16.97;15.47;;;23.40;99.90;;;;;;5037811;28;20466;-60
2023/05/21 11:47:28;;;;;;;17.27;15.87;;;24.00;99.90;;;;;;5037392;28;20557;-60
2023/05/21 11:50:00;;;;;;;17.03;15.53;;;23.80;99.90;;;;;;5037765;28;20566;-61
2023/05/21 11:52:29;;;;;;;16.53;14.97;;;23.70;99.90;;;;;;5037930;28;20582;-61
2023/05/21 11:54:57;;;;;;;16.23;14.93;;;24.30;99.90;;;;;;5036904;28;20561;-61
2023/05/21 11:57:29;;;;;;;19.53;17.83;;;24.60;99.90;;;;;;5037208;28;20463;-61
2023/05/21 11:59:58;;;;;;;16.67;15.37;;;24.50;99.90;;;;;;5037225;28;20467;-59
2023/05/21 12:02:27;;;;;;;17.53;16.13;;;23.60;99.90;;;;;;5037472;28;20561;-58
2023/05/21 12:04:59;;;;;;;18.20;16.70;;;23.50;99.90;;;;;;5036579;28;20459;-59
2023/05/21 12:07:28;;;;;;;18.70;17.00;;;23.50;99.90;;;;;;5035363;28;20467;-59
2023/05/21 12:09:56;;;;;;;16.50;15.10;;;23.70;99.90;;;;;;5035258;28;20463;-58
2023/05/21 12:12:25;;;;;;;18.17;16.73;;;24.10;99.90;;;;;;5035518;28;20784;-61
2023/05/21 12:14:54;;;;;;;18.80;17.20;;;24.10;99.90;;;;;;5035954;28;20838;-61
2023/05/21 12:17:23;;;;;;;18.87;17.27;;;24.30;99.90;;;;;;5033733;28;20498;-61
2023/05/21 12:19:52;;;;;;;17.33;15.50;;;24.20;99.90;;;;;;5033147;28;20963;-61
2023/05/21 12:22:23;;;;;;;19.00;17.40;;;24.40;99.90;;;;;;5034897;28;20455;-61
2023/05/21 12:24:52;;;;;;;17.43;15.83;;;24.50;99.90;;;;;;5034980;28;20630;-61
2023/05/21 12:27:21;;;;;;;20.23;18.27;;;24.10;99.90;;;;;;5031900;28;20518;-61
2023/05/21 12:29:50;;;;;;;17.43;15.93;;;23.20;99.90;;;;;;5025477;28;20896;-61
2023/05/21 12:32:17;;;;;;;19.30;17.53;;;23.30;99.90;;;;;;5031761;28;20487;-61
2023/05/21 12:34:47;;;;;;;19.50;17.90;;;23.40;99.90;;;;;;5033397;28;20956;-61
2023/05/21 12:37:17;;;;;;;19.17;17.53;;;23.40;99.90;;;;;;5031852;28;20474;-61
2023/05/21 12:39:47;;;;;;;17.13;15.73;;;23.60;99.90;;;;;;5012989;28;20928;-61